Hunt, Texas
Current Conditions -  °F | °C
As of 2:35 AM on Sunday 21 Dec 2014 (Local Time) from KERV Reporting Station
Overcast Overcast  
Wind Chill: 45°   Ceiling: 1400
Heat Index: 47°   Visibility: 10mi
Dew Point: 44°   Wind: 6mph
Humidity: 87%   Direction: 160°SSE
Pressure: 30.11"   Gusts: NA
Location:  30.07°N, 99.34°W
Report Text: KERV 210835Z AUTO 16005KT 10SM OVC014 09/06 A3011 RMK AO2 T00850064
Loading
Personal Weather Stations






























Interactive Weather Map New forecast layout! Learn more

10-Day Weather Forecast

Advertisements
Track Severe Weather on mobile